Caribou Municipal Airport Caribou US
ICAO: KCAR
IATA: CAR
Category: Medium
Scheduled Services: No

Elevation: 626 ft
TransAlt. 18000 ft.

Airport Communications:
ASOS:135.125
BOSTON CNTR:124.75
BANGOR RDO:122.3
CTAF/UNICOM:122.8

KCAR Zoom In..

Runways:

(A) RW 01 length 4003 ft width 100 ft
---- / hdg 7

(B) RW 11 length 3016 ft width 75 ft
---- / hdg 107

(C) RW 19 length 4003 ft width 100 ft
---- / hdg 187

(D) RW 29 length 3016 ft width 75 ft
---- / hdg 287

Location; KCAR
Day. 22 / Time. 03.54 Zulu
* Altimeter: 30.21
* Temperature: -12° c. -10.4°f.
* Wind from: 310° Speed 04 kn.
Dewpoint: -21° c.
Visibility: 10 Statute Miles.
Clouds: Clear (automated report).

KCAR 220354Z AUTO 31004KT 10SM CLR M12/M21 A3021 RMK AO2 SLP245 T11171206


Wind From 310°
Speed 04 kn.

jpsM music video
CHECK IT OUT

jpsM - It Moves..

 
jpsmedia.com for Web Design  worldairports.se 2018   terms of use